createdAt,value
2022-10-06T00:01:53.279Z,2.10
2022-10-06T00:04:23.763Z,2.30
2022-10-06T00:06:54.183Z,1.98
2022-10-06T00:09:24.605Z,2.08
2022-10-06T00:11:57.629Z,2.00
2022-10-06T00:14:28.029Z,2.40
2022-10-06T00:16:58.411Z,2.22
2022-10-06T00:19:28.878Z,1.80
2022-10-06T00:21:59.425Z,2.40
2022-10-06T00:24:29.833Z,2.05
2022-10-06T00:27:02.931Z,2.55
2022-10-06T00:29:33.419Z,2.30
2022-10-06T00:32:03.839Z,2.38
2022-10-06T00:34:34.255Z,2.17
2022-10-06T00:37:04.691Z,2.45
2022-10-06T00:39:35.097Z,2.55
2022-10-06T00:42:08.398Z,2.38
2022-10-06T00:44:38.826Z,2.10
2022-10-06T00:47:09.254Z,2.42
2022-10-06T00:49:41.165Z,2.33
2022-10-06T00:52:14.684Z,2.28
2022-10-06T00:54:45.722Z,2.55
2022-10-06T00:57:19.142Z,2.13
2022-10-06T00:59:50.161Z,2.35
2022-10-06T01:02:25.199Z,2.95
2022-10-06T01:05:00.929Z,2.63
2022-10-06T01:07:34.122Z,2.70
2022-10-06T01:10:04.667Z,2.47
2022-10-06T01:12:38.459Z,2.50
2022-10-06T01:15:10.779Z,2.20
2022-10-06T01:17:46.600Z,2.10
2022-10-06T01:20:21.249Z,1.92
2022-10-06T01:22:58.306Z,2.33
2022-10-06T01:25:30.011Z,1.90
2022-10-06T01:28:01.662Z,2.17
2022-10-06T01:30:36.124Z,1.98
2022-10-06T01:33:07.032Z,2.60
2022-10-06T01:35:37.855Z,2.40
2022-10-06T01:38:12.518Z,2.50
2022-10-06T01:40:43.324Z,2.50
2022-10-06T01:43:14.048Z,2.33
2022-10-06T01:45:46.689Z,2.40
2022-10-06T01:48:18.226Z,2.50
2022-10-06T01:50:48.716Z,2.33
2022-10-06T01:53:22.097Z,2.17
2022-10-06T01:55:52.535Z,2.15
2022-10-06T01:58:28.817Z,2.25
2022-10-06T02:00:59.931Z,2.55
2022-10-06T02:03:30.313Z,2.10
2022-10-06T02:06:00.754Z,2.40
2022-10-06T02:08:34.279Z,2.40
2022-10-06T02:11:09.820Z,2.50
2022-10-06T02:13:45.134Z,2.40
2022-10-06T02:16:16.421Z,2.15
2022-10-06T02:18:47.694Z,2.38
2022-10-06T02:21:20.032Z,2.05
2022-10-06T02:23:53.081Z,2.60
2022-10-06T02:26:23.456Z,2.38
2022-10-06T02:28:54.974Z,2.45
2022-10-06T02:31:28.029Z,2.40
2022-10-06T02:33:59.375Z,2.30
2022-10-06T02:36:30.204Z,2.20
2022-10-06T02:39:03.314Z,2.88
2022-10-06T02:41:34.256Z,2.33
2022-10-06T02:44:04.685Z,2.90
2022-10-06T02:46:35.423Z,2.47
2022-10-06T02:49:06.065Z,2.50
2022-10-06T02:51:38.020Z,2.45
2022-10-06T02:54:11.208Z,2.17
2022-10-06T02:56:41.757Z,2.70
2022-10-06T02:59:12.361Z,2.65
2022-10-06T03:01:45.014Z,2.30
2022-10-06T03:04:19.604Z,2.70
2022-10-06T03:06:52.329Z,2.70
2022-10-06T03:11:59.887Z,2.35
2022-10-06T03:14:37.043Z,2.70
2022-10-06T03:17:08.671Z,2.80
2022-10-06T03:19:41.256Z,3.50
2022-10-06T03:22:13.214Z,2.90
2022-10-06T03:24:52.219Z,2.97
2022-10-06T03:27:22.638Z,2.72
2022-10-06T03:29:55.280Z,2.53
2022-10-06T03:32:27.865Z,2.72
2022-10-06T03:34:58.451Z,4.22
2022-10-06T03:37:28.998Z,3.28
2022-10-06T03:40:02.595Z,3.20
2022-10-06T03:42:33.788Z,3.40
2022-10-06T03:45:04.664Z,3.22
2022-10-06T03:47:35.819Z,3.25
2022-10-06T03:50:08.253Z,3.13
2022-10-06T03:52:38.969Z,2.95
2022-10-06T03:55:12.609Z,3.13
2022-10-06T03:57:44.074Z,3.40
2022-10-06T04:00:18.639Z,3.05
2022-10-06T04:02:50.201Z,3.67
2022-10-06T04:05:20.687Z,3.00
2022-10-06T04:07:51.143Z,4.65
2022-10-06T04:10:24.185Z,3.70
2022-10-06T04:12:54.608Z,3.38
2022-10-06T04:15:25.474Z,3.30
2022-10-06T04:17:57.973Z,4.60
2022-10-06T04:20:28.629Z,3.08
2022-10-06T04:22:59.137Z,3.20
2022-10-06T04:25:32.381Z,4.10
2022-10-06T04:28:03.213Z,3.92
2022-10-06T04:30:33.605Z,3.28
2022-10-06T04:33:04.194Z,4.10
2022-10-06T04:35:34.703Z,4.80
2022-10-06T04:38:05.809Z,3.90
2022-10-06T04:40:39.035Z,4.05
2022-10-06T04:43:09.525Z,4.18
2022-10-06T04:45:40.218Z,4.68
2022-10-06T04:48:10.772Z,4.47
2022-10-06T04:50:41.387Z,4.13
2022-10-06T04:53:14.397Z,3.33
2022-10-06T04:55:48.567Z,3.60
2022-10-06T04:58:19.360Z,4.25
2022-10-06T05:00:52.089Z,6.78
2022-10-06T05:03:22.711Z,4.80
2022-10-06T05:05:54.185Z,4.40
2022-10-06T05:08:24.620Z,4.72
2022-10-06T05:11:02.384Z,4.15
2022-10-06T05:13:33.646Z,3.90
2022-10-06T05:16:05.622Z,3.80
2022-10-06T05:18:38.230Z,3.65
2022-10-06T05:21:11.770Z,3.70
2022-10-06T05:23:44.460Z,3.65
2022-10-06T05:26:20.065Z,3.97
2022-10-06T05:28:51.682Z,5.18
2022-10-06T05:31:24.777Z,6.78
2022-10-06T05:33:55.395Z,5.75
2022-10-06T05:36:28.267Z,5.13
2022-10-06T05:38:59.662Z,7.03
2022-10-06T05:41:37.947Z,6.80
2022-10-06T05:44:11.003Z,5.95
2022-10-06T05:46:43.532Z,5.75
2022-10-06T05:49:13.996Z,4.95
2022-10-06T05:51:59.478Z,7.47
2022-10-06T05:54:32.351Z,4.30
2022-10-06T05:57:06.083Z,5.55
2022-10-06T05:59:37.620Z,4.13
2022-10-06T06:02:09.428Z,3.80
2022-10-06T06:04:45.763Z,3.10
2022-10-06T06:07:16.962Z,4.28
2022-10-06T06:09:48.847Z,3.00
2022-10-06T06:12:21.922Z,3.40
2022-10-06T06:15:08.239Z,3.75
2022-10-06T06:17:43.958Z,3.85
2022-10-06T06:20:15.548Z,3.60
2022-10-06T06:22:46.068Z,4.72
2022-10-06T06:25:16.517Z,3.60
2022-10-06T06:27:50.006Z,2.67
2022-10-06T06:30:21.417Z,3.30
2022-10-06T06:32:52.541Z,2.67
2022-10-06T06:35:23.050Z,2.50
2022-10-06T06:37:53.638Z,2.65
2022-10-06T06:40:24.280Z,1.98
2022-10-06T06:42:58.176Z,2.10
2022-10-06T06:45:41.794Z,2.72
2022-10-06T06:48:22.886Z,2.42
2022-10-06T06:51:00.359Z,2.97
2022-10-06T06:53:34.368Z,1.98
2022-10-06T06:56:07.016Z,1.88
2022-10-06T06:58:42.333Z,2.17
2022-10-06T07:01:15.483Z,2.10
2022-10-06T07:03:57.994Z,1.80
2022-10-06T07:06:33.307Z,2.67
2022-10-06T07:09:06.030Z,2.00
2022-10-06T07:11:38.823Z,2.03
2022-10-06T07:14:16.927Z,2.40
2022-10-06T07:17:01.241Z,2.50
2022-10-06T07:19:44.817Z,2.60
2022-10-06T07:22:32.501Z,1.63
2022-10-06T07:25:11.813Z,2.42
2022-10-06T07:27:47.075Z,2.45
2022-10-06T07:30:25.849Z,2.30
2022-10-06T07:33:09.441Z,3.50
2022-10-06T07:35:42.661Z,2.13
2022-10-06T07:38:14.126Z,2.88
2022-10-06T07:43:50.601Z,2.90
2022-10-06T07:46:23.991Z,3.30
2022-10-06T07:49:05.323Z,3.10
2022-10-06T07:51:36.195Z,2.15
2022-10-06T07:54:07.166Z,2.40
2022-10-06T07:56:45.007Z,1.42
2022-10-06T07:59:15.333Z,2.40
2022-10-06T08:01:51.535Z,2.15
2022-10-06T08:04:22.070Z,1.70
2022-10-06T08:06:52.701Z,1.63
2022-10-06T08:09:23.127Z,1.27
2022-10-06T08:11:53.672Z,2.08
2022-10-06T08:14:24.394Z,1.42
2022-10-06T08:16:57.714Z,1.30
2022-10-06T08:19:28.244Z,0.98
2022-10-06T08:22:02.459Z,1.20
2022-10-06T08:25:01.129Z,1.10
2022-10-06T08:27:26.778Z,1.17
2022-10-06T08:29:57.560Z,1.40
2022-10-06T08:32:30.612Z,1.00
2022-10-06T08:35:01.011Z,1.50
2022-10-06T08:37:31.443Z,1.00
2022-10-06T08:40:01.796Z,1.20
2022-10-06T08:42:41.593Z,1.60
2022-10-06T08:45:17.641Z,1.00
2022-10-06T08:47:59.231Z,1.50
2022-10-06T08:50:33.095Z,1.02
2022-10-06T08:53:15.623Z,0.85
2022-10-06T08:55:51.612Z,0.93
2022-10-06T08:58:32.447Z,1.35
2022-10-06T09:01:17.191Z,1.50
2022-10-06T09:03:52.569Z,1.17
2022-10-06T09:06:47.380Z,1.40
2022-10-06T09:09:28.655Z,1.08
2022-10-06T09:12:09.723Z,1.55
2022-10-06T09:14:48.260Z,1.27
2022-10-06T09:17:26.419Z,1.10
2022-10-06T09:20:03.417Z,1.50
2022-10-06T09:22:35.295Z,1.35
2022-10-06T09:25:18.633Z,1.27
2022-10-06T09:27:53.146Z,1.30
2022-10-06T09:30:24.211Z,1.02
2022-10-06T09:33:00.772Z,1.00
2022-10-06T09:35:37.310Z,0.88
2022-10-06T09:38:09.444Z,0.93
2022-10-06T09:40:44.650Z,1.23
2022-10-06T09:43:24.018Z,1.08
2022-10-06T09:45:56.425Z,1.00
2022-10-06T09:48:30.371Z,1.23
2022-10-06T09:51:17.371Z,1.70
2022-10-06T09:54:10.620Z,0.75
2022-10-06T09:56:45.041Z,1.25
2022-10-06T09:59:23.560Z,0.82
2022-10-06T10:01:56.581Z,1.55
2022-10-06T10:04:30.561Z,0.85
2022-10-06T10:07:19.357Z,1.13
2022-10-06T10:09:49.848Z,1.10
2022-10-06T10:12:28.315Z,1.20
2022-10-06T10:15:07.477Z,0.90
2022-10-06T10:17:47.941Z,1.70
2022-10-06T10:20:29.186Z,1.10
2022-10-06T10:23:05.341Z,1.55
2022-10-06T10:25:55.332Z,0.90
2022-10-06T10:28:51.858Z,1.17
2022-10-06T10:31:31.600Z,1.30
2022-10-06T10:34:23.915Z,1.40
2022-10-06T10:36:59.304Z,0.98
2022-10-06T10:39:39.058Z,1.20
2022-10-06T10:42:16.796Z,1.08
2022-10-06T10:44:55.690Z,1.20
2022-10-06T10:47:30.980Z,1.20
2022-10-06T10:50:08.541Z,1.00
2022-10-06T10:52:44.579Z,1.30
2022-10-06T10:55:29.898Z,1.20
2022-10-06T10:58:04.495Z,1.00
2022-10-06T11:00:44.402Z,0.98
2022-10-06T11:03:14.969Z,1.00
2022-10-06T11:06:09.021Z,0.90
2022-10-06T11:08:47.385Z,0.80
2022-10-06T11:11:35.005Z,1.20
2022-10-06T11:14:12.551Z,1.10
2022-10-06T11:16:49.826Z,1.00
2022-10-06T11:19:29.623Z,1.10
2022-10-06T11:22:05.889Z,0.93
2022-10-06T11:24:43.490Z,0.80
2022-10-06T11:27:28.404Z,1.02
2022-10-06T11:30:08.808Z,0.65
2022-10-06T11:32:52.245Z,0.63
2022-10-06T11:35:27.134Z,0.50
2022-10-06T11:38:03.028Z,0.77
2022-10-06T11:40:50.938Z,0.77
2022-10-06T11:43:34.495Z,1.23
2022-10-06T11:46:13.106Z,0.60
2022-10-06T11:48:43.959Z,0.50
2022-10-06T11:51:33.231Z,1.13
2022-10-06T11:54:03.947Z,0.93
2022-10-06T11:56:43.141Z,0.60
2022-10-06T11:59:28.693Z,0.50
2022-10-06T12:02:04.209Z,0.60
2022-10-06T12:04:34.847Z,0.50
2022-10-06T12:07:07.070Z,0.82
2022-10-06T12:09:55.418Z,0.65
2022-10-06T12:13:13.977Z,0.75
2022-10-06T12:17:06.028Z,0.55
2022-10-06T12:19:19.802Z,0.60
2022-10-06T12:21:58.060Z,0.60
2022-10-06T12:24:37.539Z,0.50
2022-10-06T12:27:26.307Z,0.60
2022-10-06T12:30:05.291Z,0.50
2022-10-06T12:32:49.347Z,0.50
2022-10-06T12:35:34.363Z,0.60
2022-10-06T12:38:07.751Z,1.00
2022-10-06T12:40:49.695Z,0.75
2022-10-06T12:43:37.572Z,0.50
2022-10-06T12:46:17.099Z,0.45
2022-10-06T12:48:58.963Z,0.30
2022-10-06T12:51:35.171Z,0.47
2022-10-06T12:54:15.511Z,0.68
2022-10-06T12:56:46.933Z,0.80
2022-10-06T12:59:27.584Z,0.77
2022-10-06T13:02:01.035Z,0.60
2022-10-06T13:04:41.278Z,0.50
2022-10-06T13:07:22.209Z,1.10
2022-10-06T13:09:55.633Z,0.70
2022-10-06T13:12:34.764Z,0.77
2022-10-06T13:15:20.236Z,1.63
2022-10-06T13:17:54.114Z,0.93
2022-10-06T13:20:38.543Z,0.90
2022-10-06T13:23:28.814Z,0.63
2022-10-06T13:26:01.515Z,0.60
2022-10-06T13:28:47.734Z,0.80
2022-10-06T13:31:23.685Z,0.60
2022-10-06T13:33:57.507Z,0.90
2022-10-06T13:36:31.765Z,0.80
2022-10-06T13:39:02.668Z,0.90
2022-10-06T13:41:35.126Z,0.85
2022-10-06T13:44:22.812Z,0.80
2022-10-06T13:46:56.471Z,0.75
2022-10-06T13:49:31.443Z,0.80
2022-10-06T13:52:11.339Z,0.80
2022-10-06T13:54:49.311Z,0.88
2022-10-06T13:57:41.984Z,0.80
2022-10-06T14:00:24.554Z,0.80
2022-10-06T14:02:57.508Z,1.00
2022-10-06T14:05:31.761Z,1.13
2022-10-06T14:08:20.164Z,1.63
2022-10-06T14:10:55.979Z,1.10
2022-10-06T14:13:29.731Z,1.17
2022-10-06T14:16:03.605Z,1.30
2022-10-06T14:18:40.082Z,1.77
2022-10-06T14:21:21.561Z,1.70
2022-10-06T14:23:56.142Z,0.85
2022-10-06T14:26:29.051Z,1.10
2022-10-06T14:29:00.910Z,1.27
2022-10-06T14:31:34.207Z,1.25
2022-10-06T14:34:05.982Z,1.00
2022-10-06T14:36:39.914Z,1.10
2022-10-06T14:39:15.930Z,1.10
2022-10-06T14:41:46.703Z,1.67
2022-10-06T14:44:17.549Z,2.53
2022-10-06T14:46:52.628Z,2.17
2022-10-06T14:49:23.120Z,2.20
2022-10-06T14:51:54.068Z,2.90
2022-10-06T14:54:27.313Z,2.25
2022-10-06T14:56:57.834Z,1.88
2022-10-06T14:59:28.286Z,2.00
2022-10-06T15:01:58.725Z,2.20
2022-10-06T15:04:29.332Z,1.40
2022-10-06T15:07:12.085Z,1.77
2022-10-06T15:09:45.682Z,1.92
2022-10-06T15:12:16.149Z,2.13
2022-10-06T15:14:46.569Z,2.00
2022-10-06T15:17:16.997Z,1.90
2022-10-06T15:19:47.422Z,2.22
2022-10-06T15:22:17.987Z,2.00
2022-10-06T15:24:51.655Z,1.73
2022-10-06T15:27:34.432Z,1.52
2022-10-06T15:30:04.895Z,1.80
2022-10-06T15:32:35.851Z,2.33
2022-10-06T15:35:06.270Z,2.60
2022-10-06T15:37:37.049Z,2.38
2022-10-06T15:40:11.176Z,4.65
2022-10-06T15:42:41.601Z,2.97
2022-10-06T15:45:13.304Z,3.25
2022-10-06T15:47:43.928Z,3.00
2022-10-06T15:50:18.675Z,4.70
2022-10-06T15:55:22.957Z,3.88
2022-10-06T15:57:53.347Z,4.85
2022-10-06T16:00:23.869Z,5.80
2022-10-06T16:02:54.408Z,5.35
2022-10-06T16:05:49.464Z,4.88
2022-10-06T16:08:19.896Z,4.35
2022-10-06T16:10:56.221Z,4.45
2022-10-06T16:13:26.645Z,4.53
2022-10-06T16:15:57.264Z,3.47
2022-10-06T16:18:28.736Z,3.10
2022-10-06T16:20:59.215Z,3.00
2022-10-06T16:23:29.769Z,3.30
2022-10-06T16:26:04.787Z,4.28
2022-10-06T16:28:35.973Z,2.83
2022-10-06T16:31:06.652Z,3.40
2022-10-06T16:33:37.165Z,2.65
2022-10-06T16:36:08.201Z,2.53
2022-10-06T16:38:38.734Z,2.97
2022-10-06T16:41:12.800Z,3.90
2022-10-06T16:43:44.848Z,3.60
2022-10-06T16:46:17.796Z,4.82
2022-10-06T16:48:50.117Z,5.72
2022-10-06T16:51:22.391Z,5.57
2022-10-06T16:53:54.851Z,6.88
2022-10-06T16:56:30.309Z,5.85
2022-10-06T16:59:03.950Z,5.30
2022-10-06T17:01:37.144Z,5.60
2022-10-06T17:04:09.705Z,6.53
2022-10-06T17:06:43.062Z,6.00
2022-10-06T17:09:16.477Z,7.55
2022-10-06T17:11:51.493Z,6.68
2022-10-06T17:14:22.746Z,8.80
2022-10-06T17:16:54.816Z,7.00
2022-10-06T17:19:30.386Z,6.65
2022-10-06T17:22:00.940Z,6.80
2022-10-06T17:24:31.923Z,7.30
2022-10-06T17:27:05.245Z,6.88
2022-10-06T17:29:35.636Z,7.07
2022-10-06T17:32:06.165Z,6.90
2022-10-06T17:34:36.906Z,7.28
2022-10-06T17:37:07.820Z,7.32
2022-10-06T17:39:38.414Z,6.55
2022-10-06T17:42:13.907Z,7.15
2022-10-06T17:44:44.972Z,6.75
2022-10-06T17:47:15.429Z,6.82
2022-10-06T17:49:46.114Z,6.53
2022-10-06T17:52:19.562Z,7.60
2022-10-06T17:54:56.776Z,6.97
2022-10-06T17:57:30.659Z,7.57
2022-10-06T18:00:01.128Z,6.68
2022-10-06T18:02:31.826Z,6.70
2022-10-06T18:05:02.473Z,7.00
2022-10-06T18:07:33.091Z,7.80
2022-10-06T18:10:15.803Z,8.18
2022-10-06T18:12:48.861Z,7.55
2022-10-06T18:15:19.516Z,8.75
2022-10-06T18:17:52.725Z,7.20
2022-10-06T18:20:23.337Z,6.90
2022-10-06T18:22:53.745Z,7.45
2022-10-06T18:25:26.959Z,5.72
2022-10-06T18:28:00.104Z,5.95
2022-10-06T18:30:31.246Z,6.78
2022-10-06T18:36:14.834Z,6.00
2022-10-06T18:38:47.572Z,5.38
2022-10-06T18:41:20.116Z,5.05
2022-10-06T18:43:53.943Z,5.70
2022-10-06T18:46:37.334Z,5.18
2022-10-06T18:49:12.917Z,5.03
2022-10-06T18:51:45.265Z,5.40
2022-10-06T18:54:17.426Z,4.90
2022-10-06T18:56:51.845Z,5.35
2022-10-06T18:59:26.921Z,5.55
2022-10-06T19:01:58.385Z,5.00
2022-10-06T19:04:29.458Z,4.85
2022-10-06T19:06:59.858Z,5.90
2022-10-06T19:09:30.247Z,5.35
2022-10-06T19:12:02.078Z,5.22
2022-10-06T19:14:40.777Z,5.25
2022-10-06T19:17:14.994Z,4.95
2022-10-06T19:19:46.165Z,4.80
2022-10-06T19:22:17.329Z,4.63
2022-10-06T19:24:48.799Z,4.57
2022-10-06T19:27:24.351Z,4.68
2022-10-06T19:32:31.284Z,4.68
2022-10-06T19:35:06.358Z,4.80
2022-10-06T19:37:39.821Z,4.40
2022-10-06T19:40:11.569Z,4.38
2022-10-06T19:42:48.506Z,4.10
2022-10-06T19:45:21.714Z,4.35
2022-10-06T19:47:52.313Z,4.20
2022-10-06T19:50:22.865Z,4.00
2022-10-06T19:52:53.684Z,4.18
2022-10-06T19:55:24.344Z,4.47
2022-10-06T19:57:54.831Z,4.38
2022-10-06T20:00:27.996Z,4.10
2022-10-06T20:02:58.429Z,4.20
2022-10-06T20:05:28.932Z,4.32
2022-10-06T20:07:59.372Z,3.97
2022-10-06T20:10:29.850Z,3.60
2022-10-06T20:13:00.278Z,4.57
2022-10-06T20:15:37.464Z,3.88
2022-10-06T20:18:08.562Z,3.60
2022-10-06T20:20:39.083Z,4.03
2022-10-06T20:23:09.626Z,3.53
2022-10-06T20:25:40.141Z,3.88
2022-10-06T20:28:11.550Z,3.40
2022-10-06T20:30:50.120Z,3.72
2022-10-06T20:33:20.673Z,3.70
2022-10-06T20:35:51.071Z,3.50
2022-10-06T20:38:41.679Z,3.40
2022-10-06T20:41:09.652Z,4.07
2022-10-06T20:43:41.768Z,3.60
2022-10-06T20:46:14.852Z,3.65
2022-10-06T20:48:45.392Z,4.88
2022-10-06T20:51:16.224Z,3.85
2022-10-06T20:53:47.660Z,3.13
2022-10-06T20:56:19.027Z,3.28
2022-10-06T20:58:50.257Z,3.65
2022-10-06T21:01:24.972Z,3.70
2022-10-06T21:03:56.009Z,3.90
2022-10-06T21:06:27.209Z,3.72
2022-10-06T21:08:58.770Z,3.67
2022-10-06T21:11:29.185Z,3.63
2022-10-06T21:13:59.715Z,3.00
2022-10-06T21:16:34.967Z,4.32
2022-10-06T21:19:08.195Z,9.50
2022-10-06T21:21:40.231Z,3.38
2022-10-06T21:24:11.272Z,3.25
2022-10-06T21:26:42.641Z,2.97
2022-10-06T21:29:15.738Z,3.08
2022-10-06T21:31:49.423Z,2.75
2022-10-06T21:34:19.817Z,2.83
2022-10-06T21:36:50.205Z,2.45
2022-10-06T21:39:20.788Z,3.10
2022-10-06T21:41:51.251Z,2.40
2022-10-06T21:44:22.252Z,2.90
2022-10-06T21:46:58.888Z,2.70
2022-10-06T21:49:29.404Z,2.67
2022-10-06T21:52:04.824Z,2.60
2022-10-06T21:54:35.829Z,2.28
2022-10-06T21:57:08.198Z,2.72
2022-10-06T21:59:38.627Z,2.75
2022-10-06T22:02:11.777Z,2.90
2022-10-06T22:04:42.455Z,2.50
2022-10-06T22:07:12.903Z,2.90
2022-10-06T22:09:43.351Z,2.28
2022-10-06T22:12:14.007Z,2.50
2022-10-06T22:14:44.417Z,2.30
2022-10-06T22:17:17.476Z,2.72
2022-10-06T22:19:47.903Z,2.40
2022-10-06T22:22:18.265Z,2.83
2022-10-06T22:24:48.707Z,2.17
2022-10-06T22:27:19.087Z,2.22
2022-10-06T22:29:49.489Z,2.53
2022-10-06T22:32:23.446Z,2.35
2022-10-06T22:34:54.196Z,2.22
2022-10-06T22:37:24.543Z,2.10
2022-10-06T22:39:54.935Z,2.40
2022-10-06T22:42:25.321Z,2.03
2022-10-06T22:44:55.674Z,2.50
2022-10-06T22:47:28.729Z,2.08
2022-10-06T22:49:59.275Z,2.30
2022-10-06T22:52:29.687Z,2.20
2022-10-06T22:55:00.068Z,2.20
2022-10-06T22:57:30.454Z,2.10
2022-10-06T23:00:00.888Z,2.10
2022-10-06T23:02:34.946Z,1.90
2022-10-06T23:05:05.384Z,2.40
2022-10-06T23:07:35.919Z,2.40
2022-10-06T23:10:06.550Z,2.72
2022-10-06T23:12:37.181Z,2.58
2022-10-06T23:15:11.706Z,2.05
2022-10-06T23:17:45.345Z,2.25
2022-10-06T23:20:16.140Z,2.03
2022-10-06T23:22:46.807Z,2.38
2022-10-06T23:25:17.236Z,2.38
2022-10-06T23:27:47.829Z,2.33
2022-10-06T23:30:18.445Z,2.58
2022-10-06T23:32:51.577Z,2.38
2022-10-06T23:35:21.942Z,2.05
2022-10-06T23:37:52.344Z,2.17
2022-10-06T23:40:22.708Z,1.90
2022-10-06T23:42:53.343Z,2.40
2022-10-06T23:45:26.269Z,2.70
2022-10-06T23:48:00.323Z,2.50
2022-10-06T23:50:30.700Z,2.33
2022-10-06T23:53:01.150Z,2.40
2022-10-06T23:55:31.635Z,2.53
2022-10-06T23:58:02.483Z,2.00
